createdAt,value
2023-02-25T00:00:49.543Z,7.28
2023-02-25T00:03:19.504Z,7.26
2023-02-25T00:05:47.743Z,7.27
2023-02-25T00:08:16.542Z,7.26
2023-02-25T00:10:45.645Z,7.25
2023-02-25T00:13:18.390Z,7.24
2023-02-25T00:15:46.399Z,7.23
2023-02-25T00:18:14.241Z,7.24
2023-02-25T00:20:42.466Z,7.24
2023-02-25T00:23:10.237Z,7.24
2023-02-25T00:25:38.108Z,7.22
2023-02-25T00:28:07.262Z,7.20
2023-02-25T00:30:35.529Z,7.18
2023-02-25T00:33:03.341Z,7.17
2023-02-25T00:35:31.020Z,7.13
2023-02-25T00:38:13.795Z,7.13
2023-02-25T00:40:43.874Z,7.13
2023-02-25T00:43:12.929Z,7.12
2023-02-25T00:45:41.213Z,7.11
2023-02-25T00:48:08.978Z,7.10
2023-02-25T00:50:36.985Z,7.09
2023-02-25T00:53:04.680Z,7.07
2023-02-25T00:55:33.414Z,7.07
2023-02-25T00:58:02.254Z,7.05
2023-02-25T01:00:35.888Z,7.05
2023-02-25T01:03:08.490Z,7.00
2023-02-25T01:05:41.720Z,7.03
2023-02-25T01:08:10.979Z,7.02
2023-02-25T01:10:38.713Z,7.02
2023-02-25T01:13:06.381Z,7.02
2023-02-25T01:15:35.506Z,7.02
2023-02-25T01:18:03.218Z,6.99
2023-02-25T01:20:30.936Z,6.97
2023-02-25T01:22:58.720Z,6.96
2023-02-25T01:25:27.094Z,6.95
2023-02-25T01:27:56.230Z,6.94
2023-02-25T01:30:24.747Z,6.93
2023-02-25T01:32:53.871Z,6.91
2023-02-25T01:35:21.613Z,6.92
2023-02-25T01:37:49.991Z,6.90
2023-02-25T01:40:18.600Z,6.92
2023-02-25T01:42:46.982Z,6.92
2023-02-25T01:45:32.795Z,6.91
2023-02-25T01:48:13.120Z,6.89
2023-02-25T01:50:48.969Z,6.87
2023-02-25T01:53:21.478Z,6.87
2023-02-25T01:55:49.440Z,6.87
2023-02-25T01:58:18.809Z,6.86
2023-02-25T02:00:46.928Z,6.87
2023-02-25T02:03:17.021Z,6.88
2023-02-25T02:05:56.354Z,6.87
2023-02-25T02:08:26.375Z,6.86
2023-02-25T02:10:55.292Z,6.86
2023-02-25T02:13:23.230Z,6.85
2023-02-25T02:16:03.604Z,6.83
2023-02-25T02:18:36.209Z,6.83
2023-02-25T02:21:21.198Z,6.83
2023-02-25T02:24:22.952Z,6.80
2023-02-25T02:26:59.097Z,6.81
2023-02-25T02:29:49.920Z,6.81
2023-02-25T02:32:26.053Z,6.81
2023-02-25T02:35:02.329Z,6.80
2023-02-25T02:37:40.935Z,6.78
2023-02-25T02:40:20.544Z,6.78
2023-02-25T02:42:58.408Z,6.80
2023-02-25T02:45:34.597Z,6.77
2023-02-25T02:48:07.452Z,6.76
2023-02-25T02:50:38.672Z,6.76
2023-02-25T02:53:11.858Z,6.76
2023-02-25T02:55:42.677Z,6.76
2023-02-25T02:58:14.365Z,6.75
2023-02-25T03:00:45.704Z,6.76
2023-02-25T03:03:18.107Z,6.73
2023-02-25T03:05:50.372Z,6.74
2023-02-25T03:08:21.721Z,6.75
2023-02-25T03:10:49.550Z,6.72
2023-02-25T03:13:17.916Z,6.71
2023-02-25T03:15:46.775Z,6.69
2023-02-25T03:18:22.858Z,6.69
2023-02-25T03:20:53.301Z,6.70
2023-02-25T03:23:27.131Z,6.68
2023-02-25T03:25:59.611Z,6.68
2023-02-25T03:28:30.988Z,6.67
2023-02-25T03:31:06.350Z,6.66
2023-02-25T03:33:40.425Z,6.66
2023-02-25T03:36:12.491Z,6.66
2023-02-25T03:38:44.376Z,6.66
2023-02-25T03:41:14.473Z,6.65
2023-02-25T03:43:46.879Z,6.63
2023-02-25T03:46:16.183Z,6.64
2023-02-25T03:48:46.074Z,6.64
2023-02-25T03:51:16.412Z,6.60
2023-02-25T03:53:44.185Z,6.61
2023-02-25T03:56:13.412Z,6.60
2023-02-25T03:58:42.429Z,6.60
2023-02-25T04:01:17.011Z,6.59
2023-02-25T04:03:46.382Z,6.60
2023-02-25T04:06:14.590Z,6.60
2023-02-25T04:08:42.566Z,6.58
2023-02-25T04:11:10.333Z,6.58
2023-02-25T04:13:38.232Z,6.57
2023-02-25T04:16:08.518Z,6.58
2023-02-25T04:18:36.392Z,6.57
2023-02-25T04:21:06.419Z,6.57
2023-02-25T04:23:34.215Z,6.55
2023-02-25T04:26:02.080Z,6.55
2023-02-25T04:28:29.816Z,6.53
2023-02-25T04:30:57.704Z,6.53
2023-02-25T04:33:25.722Z,6.55
2023-02-25T04:35:53.427Z,6.55
2023-02-25T04:38:22.446Z,6.53
2023-02-25T04:40:52.198Z,6.56
2023-02-25T04:43:20.001Z,6.55
2023-02-25T04:45:47.997Z,6.53
2023-02-25T04:48:15.781Z,6.52
2023-02-25T04:50:43.498Z,6.52
2023-02-25T04:53:11.193Z,6.50
2023-02-25T04:55:40.273Z,6.50
2023-02-25T04:58:07.984Z,6.51
2023-02-25T05:00:35.750Z,6.51
2023-02-25T05:03:03.449Z,6.52
2023-02-25T05:05:31.140Z,6.51
2023-02-25T05:07:58.848Z,6.50
2023-02-25T05:10:26.551Z,6.50
2023-02-25T05:12:55.601Z,6.49
2023-02-25T05:15:23.342Z,6.49
2023-02-25T05:17:51.040Z,6.48
2023-02-25T05:20:18.943Z,6.47
2023-02-25T05:22:46.694Z,6.45
2023-02-25T05:25:14.896Z,6.46
2023-02-25T05:27:42.649Z,6.45
2023-02-25T05:30:13.236Z,6.43
2023-02-25T05:32:41.660Z,6.42
2023-02-25T05:35:12.090Z,6.41
2023-02-25T05:37:40.170Z,6.42
2023-02-25T05:40:09.766Z,6.42
2023-02-25T05:42:38.427Z,6.40
2023-02-25T05:45:07.009Z,6.40
2023-02-25T05:47:36.425Z,6.39
2023-02-25T05:50:04.276Z,6.38
2023-02-25T05:52:32.031Z,6.36
2023-02-25T05:55:00.161Z,6.36
2023-02-25T05:57:27.883Z,6.36
2023-02-25T05:59:55.683Z,6.32
2023-02-25T06:02:23.443Z,6.34
2023-02-25T06:04:55.467Z,6.44
2023-02-25T06:07:23.238Z,6.60
2023-02-25T06:09:50.903Z,6.73
2023-02-25T06:12:18.617Z,6.84
2023-02-25T06:14:46.293Z,7.01
2023-02-25T06:17:13.988Z,7.16
2023-02-25T06:19:41.856Z,7.30
2023-02-25T06:22:11.106Z,7.41
2023-02-25T06:24:40.665Z,7.51
2023-02-25T06:27:08.467Z,7.53
2023-02-25T06:29:36.186Z,7.45
2023-02-25T06:32:03.947Z,7.34
2023-02-25T06:34:33.584Z,7.22
2023-02-25T06:37:01.936Z,7.09
2023-02-25T06:39:31.422Z,6.97
2023-02-25T06:41:59.325Z,6.91
2023-02-25T06:44:29.230Z,6.82
2023-02-25T06:46:57.208Z,6.79
2023-02-25T06:49:25.777Z,6.74
2023-02-25T06:51:53.550Z,6.68
2023-02-25T06:54:21.288Z,6.64
2023-02-25T06:56:50.438Z,6.61
2023-02-25T06:59:18.129Z,6.59
2023-02-25T07:01:45.855Z,6.56
2023-02-25T07:04:16.578Z,6.55
2023-02-25T07:06:44.483Z,6.52
2023-02-25T07:09:12.431Z,6.49
2023-02-25T07:11:40.345Z,6.47
2023-02-25T07:14:09.457Z,6.42
2023-02-25T07:16:37.468Z,6.41
2023-02-25T07:19:05.185Z,6.40
2023-02-25T07:21:33.730Z,6.41
2023-02-25T07:24:01.446Z,6.37
2023-02-25T07:26:29.358Z,6.36
2023-02-25T07:28:58.029Z,6.34
2023-02-25T07:31:28.392Z,6.32
2023-02-25T07:33:57.056Z,6.31
2023-02-25T07:36:28.521Z,6.30
2023-02-25T07:38:56.480Z,6.30
2023-02-25T07:41:24.324Z,6.29
2023-02-25T07:43:52.649Z,6.28
2023-02-25T07:46:20.418Z,6.25
2023-02-25T07:48:49.799Z,6.35
2023-02-25T07:51:20.073Z,6.49
2023-02-25T07:53:48.048Z,6.68
2023-02-25T07:56:16.999Z,6.83
2023-02-25T07:58:44.775Z,6.94
2023-02-25T08:01:19.573Z,7.10
2023-02-25T08:03:47.954Z,7.23
2023-02-25T08:06:17.084Z,7.37
2023-02-25T08:08:45.022Z,7.49
2023-02-25T08:11:15.405Z,7.64
2023-02-25T08:13:43.151Z,7.71
2023-02-25T08:16:14.411Z,7.54
2023-02-25T08:18:43.515Z,7.56
2023-02-25T08:21:11.987Z,7.48
2023-02-25T08:23:41.544Z,7.27
2023-02-25T08:26:10.317Z,7.24
2023-02-25T08:28:39.665Z,7.12
2023-02-25T08:31:11.302Z,7.03
2023-02-25T08:33:40.618Z,6.97
2023-02-25T08:36:10.500Z,6.85
2023-02-25T08:38:38.916Z,6.77
2023-02-25T08:41:08.740Z,6.69
2023-02-25T08:43:36.988Z,6.61
2023-02-25T08:46:06.335Z,6.61
2023-02-25T08:48:34.254Z,6.50
2023-02-25T08:51:04.338Z,6.53
2023-02-25T08:53:32.071Z,6.50
2023-02-25T08:56:03.338Z,6.50
2023-02-25T08:58:32.842Z,6.48
2023-02-25T09:01:00.758Z,6.52
2023-02-25T09:03:28.914Z,6.49
2023-02-25T09:05:57.357Z,6.50
2023-02-25T09:08:25.130Z,6.45
2023-02-25T09:10:52.887Z,6.42
2023-02-25T09:13:20.621Z,6.39
2023-02-25T09:15:56.839Z,6.35
2023-02-25T09:18:24.572Z,6.38
2023-02-25T09:20:52.493Z,6.37
2023-02-25T09:23:20.241Z,6.38
2023-02-25T09:25:48.001Z,6.34
2023-02-25T09:28:15.744Z,6.31
2023-02-25T09:30:46.544Z,6.24
2023-02-25T09:33:16.045Z,6.19
2023-02-25T09:35:43.830Z,6.31
2023-02-25T09:38:12.666Z,6.34
2023-02-25T09:40:41.934Z,6.44
2023-02-25T09:43:20.916Z,6.62
2023-02-25T09:45:50.217Z,6.72
2023-02-25T09:48:25.780Z,6.95
2023-02-25T09:50:57.998Z,7.16
2023-02-25T09:53:33.060Z,7.31
2023-02-25T09:56:02.471Z,7.48
2023-02-25T09:58:35.099Z,7.60
2023-02-25T10:01:07.817Z,7.64
2023-02-25T10:03:53.390Z,7.78
2023-02-25T10:06:29.877Z,7.87
2023-02-25T10:09:05.889Z,7.90
2023-02-25T10:11:44.480Z,7.97
2023-02-25T10:14:44.852Z,7.98
2023-02-25T10:17:23.889Z,7.99
2023-02-25T10:20:08.994Z,7.89
2023-02-25T10:22:46.749Z,7.76
2023-02-25T10:25:17.151Z,7.63
2023-02-25T10:27:51.842Z,7.60
2023-02-25T10:30:26.985Z,7.51
2023-02-25T10:32:56.762Z,7.45
2023-02-25T10:35:28.720Z,7.36
2023-02-25T10:37:56.802Z,7.28
2023-02-25T10:40:29.332Z,7.29
2023-02-25T10:43:01.878Z,7.18
2023-02-25T10:45:31.774Z,7.06
2023-02-25T10:48:06.887Z,7.02
2023-02-25T10:50:45.383Z,6.98
2023-02-25T10:53:16.241Z,6.99
2023-02-25T10:55:54.896Z,6.94
2023-02-25T10:58:31.476Z,6.90
2023-02-25T11:01:04.353Z,6.88
2023-02-25T11:03:34.506Z,6.93
2023-02-25T11:06:22.151Z,6.98
2023-02-25T11:08:51.275Z,6.99
2023-02-25T11:11:22.404Z,6.95
2023-02-25T11:14:02.015Z,6.92
2023-02-25T11:16:31.904Z,6.87
2023-02-25T11:19:02.387Z,6.84
2023-02-25T11:21:35.363Z,6.99
2023-02-25T11:24:07.955Z,7.03
2023-02-25T11:26:39.329Z,7.04
2023-02-25T11:29:13.861Z,7.03
2023-02-25T11:31:43.850Z,7.04
2023-02-25T11:34:20.695Z,7.11
2023-02-25T11:36:51.213Z,7.24
2023-02-25T11:39:22.777Z,7.38
2023-02-25T11:41:52.032Z,7.53
2023-02-25T11:44:32.327Z,7.73
2023-02-25T11:47:05.419Z,7.89
2023-02-25T11:49:52.765Z,8.06
2023-02-25T11:52:26.101Z,8.23
2023-02-25T11:55:04.722Z,8.34
2023-02-25T11:57:41.937Z,8.41
2023-02-25T12:00:25.658Z,8.43
2023-02-25T12:03:20.603Z,8.32
2023-02-25T12:05:56.612Z,8.13
2023-02-25T12:08:40.414Z,7.93
2023-02-25T12:11:45.499Z,7.76
2023-02-25T12:15:03.817Z,7.58
2023-02-25T12:17:58.358Z,7.56
2023-02-25T12:20:57.772Z,7.53
2023-02-25T12:24:16.294Z,7.46
2023-02-25T12:27:03.532Z,7.42
2023-02-25T12:29:55.034Z,7.31
2023-02-25T12:32:40.508Z,7.32
2023-02-25T12:35:40.687Z,7.36
2023-02-25T12:38:29.030Z,7.42
2023-02-25T12:41:18.080Z,7.45
2023-02-25T12:43:52.198Z,7.45
2023-02-25T12:46:36.625Z,7.39
2023-02-25T12:49:22.995Z,7.39
2023-02-25T12:52:35.646Z,7.23
2023-02-25T12:55:28.559Z,7.18
2023-02-25T12:58:20.966Z,7.15
2023-02-25T13:01:24.054Z,7.09
2023-02-25T13:04:07.673Z,7.11
2023-02-25T13:07:06.010Z,7.08
2023-02-25T13:10:00.115Z,7.08
2023-02-25T13:12:45.572Z,7.20
2023-02-25T13:15:20.480Z,7.48
2023-02-25T13:18:10.056Z,7.74
2023-02-25T13:20:54.391Z,8.00
2023-02-25T13:23:57.954Z,8.26
2023-02-25T13:26:46.578Z,8.56
2023-02-25T13:29:27.489Z,8.70
2023-02-25T13:32:07.006Z,8.77
2023-02-25T13:34:45.442Z,8.77
2023-02-25T13:37:32.360Z,8.62
2023-02-25T13:40:33.207Z,8.56
2023-02-25T13:43:31.202Z,8.33
2023-02-25T13:46:10.643Z,8.24
2023-02-25T13:48:56.801Z,8.16
2023-02-25T13:51:38.881Z,8.14
2023-02-25T13:54:31.583Z,8.09
2023-02-25T13:57:11.361Z,7.96
2023-02-25T13:59:56.514Z,7.94
2023-02-25T14:02:47.759Z,7.96
2023-02-25T14:05:36.710Z,7.92
2023-02-25T14:08:36.913Z,7.93
2023-02-25T14:11:23.208Z,7.83
2023-02-25T14:14:32.734Z,7.82
2023-02-25T14:17:20.650Z,7.73
2023-02-25T14:19:57.577Z,7.61
2023-02-25T14:22:36.106Z,7.62
2023-02-25T14:25:19.650Z,7.56
2023-02-25T14:28:01.140Z,7.73
2023-02-25T14:30:40.642Z,7.83
2023-02-25T14:33:21.051Z,7.84
2023-02-25T14:36:03.677Z,7.82
2023-02-25T14:38:42.049Z,7.87
2023-02-25T14:41:31.168Z,8.13
2023-02-25T14:44:07.570Z,8.27
2023-02-25T14:46:40.489Z,8.51
2023-02-25T14:49:16.577Z,8.56
2023-02-25T14:52:28.677Z,8.48
2023-02-25T14:55:22.997Z,8.37
2023-02-25T14:58:15.594Z,8.21
2023-02-25T15:01:08.324Z,8.07
2023-02-25T15:03:59.030Z,7.98
2023-02-25T15:06:53.090Z,7.80
2023-02-25T15:09:57.184Z,7.71
2023-02-25T15:12:38.838Z,7.69
2023-02-25T15:15:29.892Z,7.82
2023-02-25T15:18:28.028Z,7.82
2023-02-25T15:20:57.024Z,7.82
2023-02-25T15:23:43.232Z,7.75
2023-02-25T15:26:22.497Z,7.61
2023-02-25T15:28:51.041Z,7.58
2023-02-25T15:31:35.090Z,7.58
2023-02-25T15:34:42.742Z,7.52
2023-02-25T15:37:34.756Z,7.51
2023-02-25T15:40:20.176Z,7.50
2023-02-25T15:42:51.044Z,7.47
2023-02-25T15:45:40.018Z,7.47
2023-02-25T15:48:30.384Z,7.50
2023-02-25T15:51:00.094Z,7.48
2023-02-25T15:53:48.323Z,7.50
2023-02-25T15:56:47.701Z,7.45
2023-02-25T15:59:43.936Z,7.40
2023-02-25T16:02:42.410Z,7.33
2023-02-25T16:05:20.384Z,7.38
2023-02-25T16:07:50.394Z,7.41
2023-02-25T16:10:27.866Z,7.50
2023-02-25T16:12:58.476Z,7.51
2023-02-25T16:15:32.911Z,7.53
2023-02-25T16:18:10.373Z,7.46
2023-02-25T16:20:46.671Z,7.45
2023-02-25T16:23:15.788Z,7.44
2023-02-25T16:25:53.385Z,7.40
2023-02-25T16:28:31.485Z,7.38
2023-02-25T16:31:07.162Z,7.34
2023-02-25T16:33:43.602Z,7.29
2023-02-25T16:36:20.148Z,7.30
2023-02-25T16:38:56.761Z,7.29
2023-02-25T16:41:36.383Z,7.32
2023-02-25T16:44:06.000Z,7.25
2023-02-25T16:46:37.577Z,7.32
2023-02-25T16:49:09.914Z,7.38
2023-02-25T16:51:40.084Z,7.31
2023-02-25T16:54:11.801Z,7.29
2023-02-25T16:56:43.549Z,7.30
2023-02-25T16:59:19.606Z,7.25
2023-02-25T17:01:50.337Z,7.27
2023-02-25T17:04:20.626Z,7.27
2023-02-25T17:07:07.764Z,7.29
2023-02-25T17:09:36.089Z,7.27
2023-02-25T17:12:05.700Z,7.25
2023-02-25T17:14:33.606Z,7.18
2023-02-25T17:17:01.604Z,7.21
2023-02-25T17:19:29.744Z,7.24
2023-02-25T17:21:59.790Z,7.22
2023-02-25T17:24:32.383Z,7.06
2023-02-25T17:27:01.712Z,7.13
2023-02-25T17:29:36.841Z,7.09
2023-02-25T17:32:14.964Z,7.02
2023-02-25T17:34:43.454Z,7.08
2023-02-25T17:37:13.868Z,7.14
2023-02-25T17:39:42.086Z,7.09
2023-02-25T17:42:35.691Z,7.07
2023-02-25T17:45:08.469Z,7.06
2023-02-25T17:47:38.089Z,7.08
2023-02-25T17:50:22.712Z,7.08
2023-02-25T17:52:51.597Z,6.99
2023-02-25T17:55:25.127Z,7.08
2023-02-25T17:57:54.923Z,7.03
2023-02-25T18:00:27.053Z,7.10
2023-02-25T18:03:15.343Z,7.12
2023-02-25T18:05:51.282Z,7.13
2023-02-25T18:08:20.891Z,7.14
2023-02-25T18:10:52.150Z,7.18
2023-02-25T18:13:36.691Z,7.18
2023-02-25T18:16:39.882Z,7.21
2023-02-25T18:19:12.496Z,7.15
2023-02-25T18:21:42.505Z,7.11
2023-02-25T18:24:22.422Z,6.99
2023-02-25T18:27:05.258Z,6.88
2023-02-25T18:29:33.884Z,6.85
2023-02-25T18:32:03.113Z,6.98
2023-02-25T18:34:31.763Z,6.96
2023-02-25T18:36:59.589Z,7.03
2023-02-25T18:39:27.726Z,7.04
2023-02-25T18:41:55.643Z,7.11
2023-02-25T18:44:23.417Z,7.08
2023-02-25T18:46:51.144Z,7.08
2023-02-25T18:49:20.285Z,7.15
2023-02-25T18:51:50.529Z,7.25
2023-02-25T18:54:18.362Z,7.39
2023-02-25T18:56:46.146Z,7.49
2023-02-25T18:59:13.872Z,7.67
2023-02-25T19:01:41.848Z,7.86
2023-02-25T19:04:14.298Z,8.08
2023-02-25T19:06:43.483Z,8.26
2023-02-25T19:09:11.487Z,8.28
2023-02-25T19:11:39.559Z,8.22
2023-02-25T19:14:08.338Z,8.12
2023-02-25T19:16:36.113Z,8.01
2023-02-25T19:19:04.143Z,7.92
2023-02-25T19:21:32.035Z,7.79
2023-02-25T19:24:01.489Z,7.69
2023-02-25T19:26:31.778Z,7.64
2023-02-25T19:29:00.653Z,7.56
2023-02-25T19:31:28.429Z,7.48
2023-02-25T19:33:56.515Z,7.45
2023-02-25T19:36:24.687Z,7.42
2023-02-25T19:38:52.609Z,7.36
2023-02-25T19:41:21.939Z,7.34
2023-02-25T19:43:49.714Z,7.32
2023-02-25T19:46:17.923Z,7.29
2023-02-25T19:48:45.698Z,7.25
2023-02-25T19:51:13.540Z,7.23
2023-02-25T19:53:41.462Z,7.20
2023-02-25T19:56:09.198Z,7.17
2023-02-25T19:58:38.288Z,7.14
2023-02-25T20:01:08.115Z,7.12
2023-02-25T20:03:36.577Z,7.10
2023-02-25T20:06:09.070Z,7.06
2023-02-25T20:08:38.588Z,7.06
2023-02-25T20:11:09.452Z,7.03
2023-02-25T20:13:39.026Z,7.02
2023-02-25T20:16:09.166Z,6.99
2023-02-25T20:18:36.998Z,6.97
2023-02-25T20:21:05.338Z,6.95
2023-02-25T20:23:33.194Z,6.94
2023-02-25T20:26:06.333Z,6.92
2023-02-25T20:28:34.146Z,6.92
2023-02-25T20:31:08.263Z,6.90
2023-02-25T20:33:36.554Z,6.84
2023-02-25T20:36:17.112Z,6.85
2023-02-25T20:39:12.738Z,6.88
2023-02-25T20:41:42.118Z,6.87
2023-02-25T20:44:10.467Z,6.85
2023-02-25T20:46:41.024Z,6.83
2023-02-25T20:49:13.053Z,6.83
2023-02-25T20:51:42.396Z,6.81
2023-02-25T20:54:10.998Z,6.81
2023-02-25T20:56:38.856Z,6.69
2023-02-25T20:59:06.584Z,6.79
2023-02-25T21:01:34.353Z,6.79
2023-02-25T21:04:03.486Z,6.80
2023-02-25T21:06:31.378Z,6.67
2023-02-25T21:08:59.792Z,6.75
2023-02-25T21:11:27.704Z,6.75
2023-02-25T21:13:55.878Z,6.74
2023-02-25T21:16:25.585Z,6.70
2023-02-25T21:18:53.930Z,6.67
2023-02-25T21:21:23.079Z,6.68
2023-02-25T21:23:52.803Z,6.65
2023-02-25T21:26:21.754Z,6.65
2023-02-25T21:28:49.951Z,6.65
2023-02-25T21:31:18.283Z,6.65
2023-02-25T21:33:46.041Z,6.64
2023-02-25T21:36:13.745Z,6.64
2023-02-25T21:38:43.303Z,6.64
2023-02-25T21:41:14.307Z,6.62
2023-02-25T21:43:43.028Z,6.60
2023-02-25T21:46:12.830Z,6.60
2023-02-25T21:48:42.102Z,6.59
2023-02-25T21:51:15.857Z,6.58
2023-02-25T21:53:44.904Z,6.57
2023-02-25T21:56:15.788Z,6.54
2023-02-25T21:58:44.285Z,6.51
2023-02-25T22:01:13.622Z,6.52
2023-02-25T22:03:41.743Z,6.48
2023-02-25T22:06:10.175Z,6.47
2023-02-25T22:08:40.238Z,6.49
2023-02-25T22:11:13.894Z,6.45
2023-02-25T22:13:42.122Z,6.44
2023-02-25T22:16:11.218Z,6.33
2023-02-25T22:18:39.509Z,6.42
2023-02-25T22:21:09.923Z,6.38
2023-02-25T22:23:37.685Z,6.38
2023-02-25T22:26:06.921Z,6.36
2023-02-25T22:28:36.785Z,6.36
2023-02-25T22:31:05.984Z,6.33
2023-02-25T22:33:34.028Z,6.34
2023-02-25T22:36:03.366Z,6.29
2023-02-25T22:38:32.547Z,6.33
2023-02-25T22:41:01.302Z,6.31
2023-02-25T22:43:29.391Z,6.29
2023-02-25T22:46:07.964Z,6.26
2023-02-25T22:48:36.065Z,6.25
2023-02-25T22:51:03.884Z,6.25
2023-02-25T22:53:31.885Z,6.22
2023-02-25T22:56:03.232Z,6.20
2023-02-25T22:58:31.264Z,6.19
2023-02-25T23:00:59.880Z,6.18
2023-02-25T23:03:29.005Z,6.18
2023-02-25T23:05:56.764Z,6.18
2023-02-25T23:08:24.703Z,6.19
2023-02-25T23:10:52.563Z,6.19
2023-02-25T23:13:21.597Z,6.19
2023-02-25T23:15:49.591Z,6.18
2023-02-25T23:18:19.043Z,6.18
2023-02-25T23:20:48.758Z,6.18
2023-02-25T23:23:17.496Z,6.17
2023-02-25T23:25:52.229Z,6.16
2023-02-25T23:28:19.998Z,6.15
2023-02-25T23:30:47.775Z,6.14
2023-02-25T23:33:16.127Z,6.14
2023-02-25T23:35:43.883Z,6.14
2023-02-25T23:38:13.193Z,6.15
2023-02-25T23:40:40.919Z,6.15
2023-02-25T23:43:08.621Z,6.13
2023-02-25T23:45:36.394Z,6.14
2023-02-25T23:48:04.208Z,6.14
2023-02-25T23:50:31.980Z,6.15
2023-02-25T23:52:59.846Z,6.14
2023-02-25T23:55:29.220Z,6.14
2023-02-25T23:57:57.032Z,6.13
